Time;durP1;ratioP1;P1;durP2;ratioP2;P2;SDS_P1;SDS_P2;PMS_P1;PMS_P2;Temp;Humidity;BMP_temperature;BMP_pressure;BME280_temperature;BME280_humidity;BME280_pressure;Samples;Min_cycle;Max_cycle;Signal;HPM_P1;HPM_P2
2022/05/10 00:00:56;;;;;;;9.68;6.35;;;;;;;13.81;96.92;101476.75;5013128;28;20527;-76
2022/05/10 00:03:33;;;;;;;9.10;6.72;;;;;;;13.77;96.95;101470.16;5012731;28;20049;-76
2022/05/10 00:06:04;;;;;;;11.35;6.95;;;;;;;13.69;97.40;101468.81;5013331;28;20072;-76
2022/05/10 00:08:33;;;;;;;13.73;7.38;;;;;;;13.63;98.42;101468.00;4995712;28;20053;-75
2022/05/10 00:11:00;;;;;;;8.77;6.70;;;;;;;13.57;99.20;101471.84;5013227;28;20046;-76
2022/05/10 00:13:28;;;;;;;11.02;7.22;;;;;;;13.60;98.16;101468.56;5013572;28;20038;-76
2022/05/10 00:15:56;;;;;;;10.85;6.72;;;;;;;13.52;98.69;101463.63;5013145;28;20053;-76
2022/05/10 00:18:28;;;;;;;12.02;6.63;;;;;;;13.48;100.00;101459.78;5013311;28;20046;-76
2022/05/10 00:20:57;;;;;;;9.25;6.75;;;;;;;13.44;99.39;101464.97;5013367;28;20065;-75
2022/05/10 00:23:25;;;;;;;10.18;7.22;;;;;;;13.43;99.03;101461.41;5012626;28;20050;-75
2022/05/10 00:25:54;;;;;;;10.30;6.25;;;;;;;13.47;98.90;101467.22;5012907;28;20060;-75
2022/05/10 00:28:22;;;;;;;10.57;7.30;;;;;;;13.41;98.87;101455.34;5013017;28;20057;-76
2022/05/10 00:30:50;;;;;;;8.85;6.32;;;;;;;13.39;98.50;101459.50;5012239;28;20523;-76
2022/05/10 00:33:26;;;;;;;9.02;5.93;;;;;;;13.43;97.79;101458.66;5012220;28;20053;-76
2022/05/10 00:35:56;;;;;;;9.43;5.95;;;;;;;13.42;97.87;101454.28;5013131;28;20060;-76
2022/05/10 00:38:32;;;;;;;11.95;7.63;;;;;;;13.66;96.57;101453.69;5012788;28;20425;-75
2022/05/10 00:41:10;;;;;;;12.18;6.57;;;;;;;13.58;96.90;101448.75;5012374;28;20072;-75
2022/05/10 00:43:43;;;;;;;9.93;6.55;;;;;;;13.51;97.07;101456.47;5012717;28;20062;-75
2022/05/10 00:46:15;;;;;;;11.52;6.38;;;;;;;13.53;96.28;101454.25;5012073;28;20050;-75
2022/05/10 00:48:52;;;;;;;11.65;6.45;;;;;;;13.47;97.08;101450.72;5012735;28;20057;-75
2022/05/10 00:51:32;;;;;;;10.05;6.72;;;;;;;13.55;95.71;101450.13;5011943;28;20046;-75
2022/05/10 00:54:08;;;;;;;8.20;6.30;;;;;;;13.50;95.11;101443.84;5012853;28;20064;-75
2022/05/10 00:56:51;;;;;;;9.68;6.50;;;;;;;13.39;96.30;101446.56;5000347;28;20057;-75
2022/05/10 00:59:32;;;;;;;8.75;6.05;;;;;;;13.42;96.33;101448.78;5012428;28;20049;-75
2022/05/10 01:02:07;;;;;;;9.52;6.65;;;;;;;13.37;96.57;101440.53;5012531;28;20053;-75
2022/05/10 01:04:42;;;;;;;7.60;6.07;;;;;;;13.50;95.61;101438.34;5012430;28;20065;-76
2022/05/10 01:07:22;;;;;;;;;;;;;;;13.45;95.45;101441.91;5013281;28;20065;-75
2022/05/10 01:09:56;;;;;;;8.35;6.18;;;;;;;13.43;95.68;101438.56;5012166;28;19932;-75
2022/05/10 01:12:58;;;;;;;9.05;6.32;;;;;;;13.34;96.38;101440.25;5011888;28;20057;-75
2022/05/10 01:15:26;;;;;;;8.85;6.97;;;;;;;13.16;97.17;101439.72;4994537;28;20137;-75
2022/05/10 01:17:57;;;;;;;9.18;6.72;;;;;;;13.04;97.27;101438.09;5012181;28;20053;-75
2022/05/10 01:20:46;;;;;;;7.63;5.60;;;;;;;13.00;97.75;101444.44;5012253;28;20042;-75
2022/05/10 01:23:36;;;;;;;10.00;6.18;;;;;;;13.02;97.55;101439.47;4977309;28;20061;-75
2022/05/10 01:26:12;;;;;;;8.45;6.00;;;;;;;12.96;97.16;101435.88;5012339;28;20065;-75
2022/05/10 01:28:52;;;;;;;10.10;6.05;;;;;;;12.94;97.58;101434.53;5011789;28;20058;-75
2022/05/10 01:31:27;;;;;;;6.35;4.75;;;;;;;13.13;96.25;101441.09;5011639;28;20050;-75
2022/05/10 01:34:06;;;;;;;8.60;5.68;;;;;;;13.22;95.84;101426.78;4998918;28;20060;-75
2022/05/10 01:37:12;;;;;;;8.75;5.60;;;;;;;13.26;94.08;101431.44;5012037;28;20416;-75
2022/05/10 01:39:49;;;;;;;11.57;5.60;;;;;;;13.23;94.17;101417.44;4952012;28;20071;-75
2022/05/10 01:42:25;;;;;;;7.63;5.85;;;;;;;13.07;95.20;101428.47;4993162;28;20069;-75
2022/05/10 01:45:05;;;;;;;10.00;5.65;;;;;;;12.90;96.42;101426.00;5011566;28;20053;-75
2022/05/10 01:47:38;;;;;;;8.30;6.03;;;;;;;12.79;96.25;101425.19;4998603;28;20113;-75
2022/05/10 01:50:09;;;;;;;9.15;5.38;;;;;;;12.72;95.96;101419.94;5012386;28;20057;-75
2022/05/10 01:53:12;;;;;;;9.43;5.55;;;;;;;12.70;96.37;101421.34;5008115;28;20056;-75
2022/05/10 01:55:47;;;;;;;9.75;5.28;;;;;;;12.69;96.16;101420.50;5011697;28;20050;-75
2022/05/10 01:58:24;;;;;;;7.32;4.90;;;;;;;12.79;94.92;101416.09;4998919;28;20049;-75
2022/05/10 02:00:58;;;;;;;5.85;4.90;;;;;;;12.85;95.19;101421.34;5000744;28;20085;-75
2022/05/10 02:03:44;;;;;;;11.10;5.78;;;;;;;12.79;95.62;101419.69;5004961;28;20385;-75
2022/05/10 02:06:35;;;;;;;7.28;4.53;;;;;;;12.69;96.87;101417.75;5011787;28;20054;-75
2022/05/10 02:09:15;;;;;;;8.98;5.40;;;;;;;12.68;96.38;101416.13;5011645;28;20053;-75
2022/05/10 02:12:17;;;;;;;8.30;4.93;;;;;;;12.73;95.13;101415.28;5011540;28;20404;-75
2022/05/10 02:14:58;;;;;;;8.90;5.65;;;;;;;12.85;94.84;101418.59;4994751;28;20512;-75
2022/05/10 02:17:49;;;;;;;8.20;5.43;;;;;;;12.92;93.58;101407.34;5011550;28;20049;-76
2022/05/10 02:20:46;;;;;;;6.72;5.05;;;;;;;12.76;95.11;101404.56;5011586;28;20042;-75
2022/05/10 02:23:20;;;;;;;8.27;5.50;;;;;;;12.68;95.07;101404.28;5011265;28;20404;-75
2022/05/10 02:25:55;;;;;;;7.68;5.65;;;;;;;12.56;95.22;101399.91;5011605;28;20053;-75
2022/05/10 02:28:48;;;;;;;7.78;5.63;;;;;;;12.47;96.09;101401.56;5013308;28;20057;-75
2022/05/10 02:34:37;;;;;;;9.20;5.05;;;;;;;12.40;96.51;101398.22;5023121;28;20053;-75
2022/05/10 02:37:06;;;;;;;8.02;6.18;;;;;;;12.40;95.57;101390.81;5015002;28;20068;-75
2022/05/10 02:39:34;;;;;;;8.93;5.97;;;;;;;12.46;95.35;101397.16;5014965;28;20049;-75
2022/05/10 02:42:04;;;;;;;6.10;4.60;;;;;;;12.51;95.03;101391.66;5014968;28;20054;-75
2022/05/10 02:44:39;;;;;;;6.93;5.28;;;;;;;12.45;96.23;101385.34;5008546;28;20053;-75
2022/05/10 02:47:09;;;;;;;9.07;5.20;;;;;;;12.42;95.80;101387.81;5010837;28;20488;-75
2022/05/10 02:49:38;;;;;;;10.70;5.95;;;;;;;12.40;95.26;101393.56;5014353;28;20397;-75
2022/05/10 02:52:07;;;;;;;7.88;5.13;;;;;;;12.53;94.56;101392.22;5014701;28;20049;-75
2022/05/10 02:54:35;;;;;;;10.40;5.60;;;;;;;12.57;94.90;101389.75;5014628;28;20061;-75
2022/05/10 02:57:04;;;;;;;11.43;5.75;;;;;;;12.49;95.53;101385.63;5014787;28;20061;-75
2022/05/10 02:59:36;;;;;;;9.00;5.88;;;;;;;12.40;95.72;101377.09;5014724;28;20037;-75
2022/05/10 03:02:13;;;;;;;8.18;4.93;;;;;;;12.33;95.50;101384.78;5009999;28;20073;-74
2022/05/10 03:04:49;;;;;;;11.85;6.10;;;;;;;12.24;95.96;101376.25;5012079;28;20056;-75
2022/05/10 03:07:17;;;;;;;8.43;5.57;;;;;;;12.21;96.79;101382.28;4998299;28;20054;-75
2022/05/10 03:09:45;;;;;;;7.53;5.38;;;;;;;12.19;96.54;101381.72;5014573;28;20399;-75
2022/05/10 03:12:13;;;;;;;8.27;5.40;;;;;;;12.18;96.56;101388.31;5013333;28;20050;-75
2022/05/10 03:14:41;;;;;;;10.10;5.60;;;;;;;12.19;96.37;101384.47;5014391;28;20068;-75
2022/05/10 03:17:10;;;;;;;10.95;5.80;;;;;;;12.20;97.27;101375.97;5013599;28;20424;-75
2022/05/10 03:19:42;;;;;;;7.78;5.47;;;;;;;12.21;97.14;101382.28;5014142;28;20053;-75
2022/05/10 03:22:11;;;;;;;9.27;5.50;;;;;;;12.18;96.61;101380.09;5013354;28;20049;-74
2022/05/10 03:24:39;;;;;;;9.13;5.40;;;;;;;12.17;96.78;101381.19;5014294;28;20042;-75
2022/05/10 03:27:09;;;;;;;10.55;5.45;;;;;;;12.16;97.27;101382.25;5013805;28;20057;-75
2022/05/10 03:29:39;;;;;;;9.00;5.25;;;;;;;12.18;97.01;101380.88;4997000;28;20053;-75
2022/05/10 03:32:08;;;;;;;12.18;5.70;;;;;;;12.30;96.71;101388.88;5013960;28;20400;-75
2022/05/10 03:34:55;;;;;;;8.68;5.82;;;;;;;12.33;96.36;101395.75;5013629;28;20057;-75
2022/05/10 03:37:27;;;;;;;9.88;5.68;;;;;;;12.32;96.07;101383.94;5013708;28;20049;-75
2022/05/10 03:39:56;;;;;;;10.65;5.45;;;;;;;12.27;96.50;101392.16;5013468;28;20038;-75
2022/05/10 03:42:25;;;;;;;6.82;5.43;;;;;;;12.21;96.63;101398.75;5003273;28;20050;-75
2022/05/10 03:44:53;;;;;;;8.23;6.10;;;;;;;12.17;97.42;101395.72;5013635;28;20061;-75
2022/05/10 03:47:26;;;;;;;11.65;5.97;;;;;;;12.12;97.66;101403.13;5013538;28;20399;-75
2022/05/10 03:49:56;;;;;;;7.93;5.72;;;;;;;12.07;97.78;101393.78;5013732;28;20049;-75
2022/05/10 03:52:24;;;;;;;7.05;5.90;;;;;;;12.07;98.68;101393.78;5012678;28;20064;-75
2022/05/10 03:54:52;;;;;;;10.45;6.00;;;;;;;12.12;97.18;101394.88;5013217;28;20069;-75
2022/05/10 03:57:20;;;;;;;10.93;5.50;;;;;;;12.15;97.29;101395.16;5012552;28;20057;-75
2022/05/10 03:59:48;;;;;;;9.50;5.57;;;;;;;12.23;96.51;101402.88;4996282;28;20046;-75
2022/05/10 04:02:16;;;;;;;8.63;5.70;;;;;;;12.36;96.19;101396.03;5013159;28;20050;-75
2022/05/10 04:04:45;;;;;;;5.53;4.72;;;;;;;12.44;95.13;101402.06;5012248;28;20038;-75
2022/05/10 04:07:14;;;;;;;8.68;4.95;;;;;;;12.44;95.47;101408.41;5012747;28;20057;-75
2022/05/10 04:09:41;;;;;;;8.20;5.32;;;;;;;12.42;95.67;101410.56;5013324;28;20058;-75
2022/05/10 04:12:10;;;;;;;8.57;5.60;;;;;;;12.36;97.06;101407.00;5013416;28;20054;-75
2022/05/10 04:14:38;;;;;;;8.70;5.90;;;;;;;12.30;96.42;101410.84;5013155;28;20050;-75
2022/05/10 04:17:06;;;;;;;11.02;6.03;;;;;;;12.28;96.91;101404.81;5013049;28;20045;-75
2022/05/10 04:19:34;;;;;;;11.27;5.40;;;;;;;12.26;96.81;101404.25;5012910;28;20073;-76
2022/05/10 04:22:02;;;;;;;9.75;5.57;;;;;;;12.42;95.81;101415.25;5012603;28;20053;-73
2022/05/10 04:24:30;;;;;;;10.38;6.00;;;;;;;12.42;96.02;101412.53;5009180;28;20061;-75
2022/05/10 04:27:01;;;;;;;10.40;6.15;;;;;;;12.45;95.80;101415.53;5009650;28;20045;-75
2022/05/10 04:29:29;;;;;;;8.48;5.43;;;;;;;12.49;96.12;101415.81;5003666;28;20049;-71
2022/05/10 04:31:57;;;;;;;9.02;5.80;;;;;;;12.56;95.68;101421.06;5006031;28;20077;-71
2022/05/10 04:34:28;;;;;;;8.30;6.10;;;;;;;12.62;94.90;101415.28;5000653;28;20077;-70
2022/05/10 04:37:07;;;;;;;8.93;5.65;;;;;;;12.72;93.65;101410.91;5001061;28;20061;-70
2022/05/10 04:42:24;;;;;;;8.32;5.70;;;;;;;13.02;93.55;101428.47;5002593;28;20053;-71
2022/05/10 04:44:52;;;;;;;7.53;4.97;;;;;;;13.09;92.74;101431.75;5009023;28;20050;-71
2022/05/10 04:47:26;;;;;;;8.80;5.15;;;;;;;13.55;91.31;101441.06;5003087;28;20042;-71
2022/05/10 04:49:53;;;;;;;7.57;5.38;;;;;;;13.78;89.45;101438.81;4995775;28;20038;-71
2022/05/10 04:52:22;;;;;;;12.98;5.38;;;;;;;14.04;86.59;101447.78;4993172;28;20386;-71
2022/05/10 04:54:50;;;;;;;9.95;5.28;;;;;;;14.18;85.71;101447.16;4976921;28;20064;-71
2022/05/10 04:57:18;;;;;;;9.32;5.20;;;;;;;14.48;84.66;101451.66;4960343;28;20049;-71
2022/05/10 04:59:46;;;;;;;11.15;4.88;;;;;;;14.74;83.60;101450.66;4970105;28;20045;-72
2022/05/10 05:02:14;;;;;;;7.53;5.10;;;;;;;15.01;82.15;101455.72;5006960;28;20569;-71
2022/05/10 05:04:42;;;;;;;7.55;4.95;;;;;;;15.20;80.92;101460.50;4999867;28;20539;-71
2022/05/10 05:07:10;;;;;;;9.43;5.47;;;;;;;15.34;79.70;101460.66;4989835;28;20046;-71
2022/05/10 05:09:38;;;;;;;9.27;4.82;;;;;;;15.28;79.23;101457.13;4996827;28;20049;-71
2022/05/10 05:12:06;;;;;;;7.53;4.53;;;;;;;15.35;79.30;101450.47;4983913;28;20042;-71
2022/05/10 05:14:34;;;;;;;8.50;4.90;;;;;;;15.25;79.40;101462.41;5007216;28;20038;-71
2022/05/10 05:17:02;;;;;;;9.45;5.32;;;;;;;15.30;79.75;101460.41;5004404;28;20061;-71
2022/05/10 05:19:31;;;;;;;7.00;5.32;;;;;;;15.25;79.87;101462.41;5000892;28;20050;-71
2022/05/10 05:21:59;;;;;;;9.32;5.18;;;;;;;15.37;79.71;101460.09;5006716;28;20057;-71
2022/05/10 05:24:28;;;;;;;5.88;4.80;;;;;;;15.42;79.47;101461.97;4979460;28;20044;-71
2022/05/10 05:26:57;;;;;;;6.20;5.13;;;;;;;15.49;79.23;101459.69;5009809;28;20046;-71
2022/05/10 05:29:27;;;;;;;5.93;4.90;;;;;;;15.58;78.86;101457.94;5010073;28;20037;-71
2022/05/10 05:32:18;;;;;;;6.80;4.53;;;;;;;15.67;77.75;101468.31;5005457;28;20034;-71
2022/05/10 05:34:46;;;;;;;11.07;5.45;;;;;;;15.66;78.40;101466.69;5010651;28;20405;-71
2022/05/10 05:37:34;;;;;;;7.82;5.13;;;;;;;15.81;77.71;101466.50;5006682;28;20046;-71
2022/05/10 05:40:14;;;;;;;7.18;5.13;;;;;;;15.96;77.75;101470.22;5005677;28;20050;-71
2022/05/10 05:42:48;;;;;;;6.93;5.03;;;;;;;16.15;76.75;101466.69;5008680;28;20038;-71
2022/05/10 05:45:19;;;;;;;6.30;4.55;;;;;;;16.34;75.60;101463.94;5010199;28;20484;-72
2022/05/10 05:47:50;;;;;;;6.72;4.63;;;;;;;16.47;75.00;101468.72;5007282;28;20058;-71
2022/05/10 05:50:21;;;;;;;10.02;4.43;;;;;;;16.50;75.28;101459.84;5011744;28;20069;-71
2022/05/10 05:52:56;;;;;;;8.77;6.00;;;;;;;16.55;76.12;101463.63;5012082;28;20469;-71
2022/05/10 05:55:24;;;;;;;6.63;5.35;;;;;;;16.60;76.81;101453.34;5012132;28;20054;-71
2022/05/10 05:57:52;;;;;;;7.18;4.93;;;;;;;16.67;77.35;101455.72;4994434;28;20401;-71
2022/05/10 06:00:23;;;;;;;10.70;5.45;;;;;;;16.78;77.71;101454.44;5012150;28;20046;-71
2022/05/10 06:02:51;;;;;;;7.80;5.35;;;;;;;16.98;75.61;101457.16;4996609;28;20046;-71
2022/05/10 06:05:21;;;;;;;6.10;5.40;;;;;;;16.98;76.25;101462.69;5015884;28;20045;-71
2022/05/10 06:07:49;;;;;;;8.52;4.78;;;;;;;17.06;75.35;101459.28;5015745;28;20390;-71
2022/05/10 06:10:17;;;;;;;8.10;4.63;;;;;;;17.18;74.45;101454.09;5014993;28;20046;-72
2022/05/10 06:12:45;;;;;;;9.90;5.07;;;;;;;17.34;73.75;101445.50;5015722;28;20393;-71
2022/05/10 06:15:16;;;;;;;6.03;4.78;;;;;;;17.42;73.00;101447.59;5014915;28;20055;-71
2022/05/10 06:17:48;;;;;;;7.72;4.95;;;;;;;17.52;72.84;101449.34;5014786;28;20065;-71
2022/05/10 06:20:20;;;;;;;7.20;4.70;;;;;;;17.63;73.34;101449.94;5015282;28;20038;-72
2022/05/10 06:22:49;;;;;;;8.98;4.47;;;;;;;17.79;73.04;101457.94;5015611;28;20053;-71
2022/05/10 06:25:20;;;;;;;9.20;5.30;;;;;;;17.83;72.07;101450.66;5015263;28;20047;-71
2022/05/10 06:27:49;;;;;;;6.93;5.75;;;;;;;17.94;72.44;101452.09;5015429;28;20061;-72
2022/05/10 06:30:19;;;;;;;6.13;5.03;;;;;;;17.95;71.98;101450.94;5015175;28;20045;-71
2022/05/10 06:32:47;;;;;;;12.10;5.60;;;;;;;18.10;72.71;101460.91;5015288;28;20050;-71
2022/05/10 06:35:17;;;;;;;9.57;5.13;;;;;;;18.20;72.18;101462.66;5014154;28;20084;-71
2022/05/10 06:40:38;;;;;;;7.18;5.38;;;;;;;18.34;70.41;101457.06;5015069;28;20076;-71
2022/05/10 06:43:06;;;;;;;5.60;4.63;;;;;;;18.43;69.85;101461.88;5014379;28;20053;-71
2022/05/10 06:45:36;;;;;;;8.77;4.93;;;;;;;18.52;67.83;101460.00;5014448;28;20052;-71
2022/05/10 06:48:05;;;;;;;6.40;4.80;;;;;;;18.54;68.10;101463.28;5014371;28;20054;-71
2022/05/10 06:50:33;;;;;;;8.15;5.53;;;;;;;18.64;68.09;101467.78;5014687;28;20050;-71
2022/05/10 06:53:01;;;;;;;7.65;4.70;;;;;;;18.80;64.92;101465.44;5013955;28;20054;-71
2022/05/10 06:55:32;;;;;;;8.18;4.97;;;;;;;18.92;65.45;101467.66;5014797;28;20624;-72
2022/05/10 06:58:01;;;;;;;7.38;5.22;;;;;;;19.05;64.90;101464.03;4997565;28;20054;-72
2022/05/10 07:00:33;;;;;;;5.15;4.63;;;;;;;19.21;64.22;101463.63;5014375;28;20041;-72
2022/05/10 07:03:33;;;;;;;7.78;4.55;;;;;;;19.23;62.91;101472.47;5014266;28;20045;-72
2022/05/10 07:06:03;;;;;;;8.75;3.97;;;;;;;19.30;61.95;101461.72;5009972;28;20057;-71
2022/05/10 07:08:31;;;;;;;6.20;4.55;;;;;;;19.33;63.99;101474.97;5014110;28;20045;-71
2022/05/10 07:11:00;;;;;;;8.18;5.03;;;;;;;19.39;64.46;101472.03;5014473;28;20073;-71
2022/05/10 07:13:29;;;;;;;6.30;4.30;;;;;;;19.45;63.89;101474.38;5012916;28;20488;-71
2022/05/10 07:15:58;;;;;;;6.47;4.97;;;;;;;19.49;62.57;101473.75;5014494;28;20381;-72
2022/05/10 07:18:26;;;;;;;6.72;4.53;;;;;;;19.55;61.66;101481.59;5013644;28;20053;-71
2022/05/10 07:20:54;;;;;;;8.23;4.68;;;;;;;19.58;61.56;101477.34;4996785;28;20057;-72
2022/05/10 07:23:26;;;;;;;8.98;4.88;;;;;;;19.73;59.79;101473.34;5013410;28;20052;-72
2022/05/10 07:25:55;;;;;;;7.63;4.85;;;;;;;19.77;60.68;101477.13;5013835;28;20057;-72
2022/05/10 07:28:23;;;;;;;6.25;4.25;;;;;;;19.82;60.60;101474.19;5013775;28;20527;-72
2022/05/10 07:30:52;;;;;;;6.72;4.78;;;;;;;19.82;60.74;101471.41;5013390;28;20049;-72
2022/05/10 07:33:20;;;;;;;7.65;4.40;;;;;;;19.83;60.29;101475.81;5013725;28;20058;-72
2022/05/10 07:38:39;;;;;;;10.75;5.38;;;;;;;19.88;61.02;101472.09;5014007;28;20485;-72
2022/05/10 07:41:08;;;;;;;10.57;5.00;;;;;;;20.12;63.19;101474.47;5013442;28;20045;-72
2022/05/10 07:43:37;;;;;;;8.20;5.80;;;;;;;20.18;60.38;101475.13;5013693;28;20058;-71
2022/05/10 07:46:07;;;;;;;10.10;5.75;;;;;;;20.18;60.01;101479.88;5013577;28;20052;-72
2022/05/10 07:48:35;;;;;;;7.82;5.43;;;;;;;20.09;60.20;101477.88;5013791;28;20038;-72
2022/05/10 07:51:03;;;;;;;9.52;5.88;;;;;;;20.19;61.34;101475.94;5013038;28;20051;-72
2022/05/10 07:53:35;;;;;;;9.77;5.45;;;;;;;20.31;61.29;101476.13;5013634;28;20046;-72
2022/05/10 07:56:04;;;;;;;9.63;5.75;;;;;;;20.54;61.06;101478.78;5013108;28;20058;-72
2022/05/10 07:58:55;;;;;;;7.57;5.45;;;;;;;20.48;60.49;101469.75;5013658;28;20401;-72
2022/05/10 08:01:25;;;;;;;7.72;5.32;;;;;;;20.50;60.75;101473.06;5013538;28;20045;-72
2022/05/10 08:03:54;;;;;;;11.80;5.43;;;;;;;20.51;59.54;101473.84;4995964;28;20050;-71
2022/05/10 08:06:22;;;;;;;8.85;5.25;;;;;;;20.50;59.25;101477.78;5013455;28;20042;-71
2022/05/10 08:08:50;;;;;;;9.50;5.38;;;;;;;20.47;58.38;101470.13;5013551;28;20048;-71
2022/05/10 08:11:18;;;;;;;11.80;5.50;;;;;;;20.60;59.52;101465.50;5012808;28;20405;-71
2022/05/10 08:13:46;;;;;;;5.40;4.40;;;;;;;20.63;60.09;101464.88;5013080;28;20050;-71
2022/05/10 08:16:14;;;;;;;7.03;5.20;;;;;;;20.76;59.98;101469.44;5012555;28;20061;-71
2022/05/10 08:18:49;;;;;;;6.63;4.72;;;;;;;20.68;59.27;101465.50;5013110;28;20046;-71
2022/05/10 08:21:17;;;;;;;5.32;4.40;;;;;;;20.76;58.88;101465.84;5012685;28;20061;-71
2022/05/10 08:23:47;;;;;;;5.75;4.13;;;;;;;20.98;57.93;101464.03;5012351;28;20049;-71
2022/05/10 08:26:15;;;;;;;8.10;4.60;;;;;;;21.01;58.76;101466.97;5012674;28;20062;-71
2022/05/10 08:28:43;;;;;;;7.50;5.00;;;;;;;21.03;57.40;101455.53;5013117;28;20416;-71
2022/05/10 08:31:11;;;;;;;6.70;5.15;;;;;;;21.16;56.42;101454.50;5012954;28;20065;-71
2022/05/10 08:33:41;;;;;;;8.43;4.38;;;;;;;21.21;57.30;101450.72;5011859;28;20057;-71
2022/05/10 08:36:09;;;;;;;8.43;4.75;;;;;;;21.26;55.29;101458.91;5011935;28;20061;-71
2022/05/10 08:38:38;;;;;;;9.07;4.47;;;;;;;21.35;54.68;101451.34;5012710;28;20061;-71
2022/05/10 08:41:17;;;;;;;9.55;5.47;;;;;;;21.54;57.28;101449.28;5012912;28;20052;-71
2022/05/10 08:43:50;;;;;;;5.63;3.95;;;;;;;21.61;56.58;101453.19;5012476;28;20053;-71
2022/05/10 08:46:26;;;;;;;9.97;4.57;;;;;;;21.71;54.64;101452.03;5013062;28;20069;-71
2022/05/10 08:49:01;;;;;;;5.38;3.80;;;;;;;21.59;53.75;101452.72;5012209;28;20057;-71
2022/05/10 08:51:31;;;;;;;9.40;4.25;;;;;;;21.56;50.83;101456.16;5012567;28;20053;-71
2022/05/10 08:53:59;;;;;;;6.90;3.53;;;;;;;21.59;50.91;101447.16;5012770;28;20046;-71
2022/05/10 08:56:43;;;;;;;10.75;4.68;;;;;;;21.59;51.86;101452.72;5012112;28;20060;-71
2022/05/10 08:59:36;;;;;;;7.38;3.58;;;;;;;21.67;50.22;101451.06;5012138;28;20060;-71
2022/05/10 09:02:12;;;;;;;4.57;3.40;;;;;;;21.76;49.81;101459.41;5012535;28;20042;-71
2022/05/10 09:04:43;;;;;;;6.93;3.50;;;;;;;21.69;49.65;101456.28;5012295;28;20065;-71
2022/05/10 09:07:28;;;;;;;7.55;3.63;;;;;;;21.73;47.18;101454.50;5012789;28;20414;-71
2022/05/10 09:10:11;;;;;;;4.15;3.30;;;;;;;21.97;48.49;101451.09;5012239;28;20061;-71
2022/05/10 09:12:58;;;;;;;6.85;3.58;;;;;;;22.02;44.98;101455.66;5011815;28;20053;-71
2022/05/10 09:15:29;;;;;;;5.43;2.92;;;;;;;21.99;44.33;101453.53;5011675;28;20050;-71
2022/05/10 09:17:58;;;;;;;4.80;3.08;;;;;;;22.07;44.72;101454.63;5012392;28;20041;-71
2022/05/10 09:20:26;;;;;;;6.75;3.30;;;;;;;22.08;45.62;101439.53;5012285;28;20432;-71
2022/05/10 09:23:05;;;;;;;6.53;3.33;;;;;;;22.27;47.35;101448.25;5012043;28;20053;-71
2022/05/10 09:25:37;;;;;;;8.18;3.33;;;;;;;22.28;46.97;101443.50;5011968;28;20057;-71
2022/05/10 09:28:33;;;;;;;7.47;3.47;;;;;;;22.45;47.71;101444.50;5012247;28;20049;-71
2022/05/10 09:34:47;;;;;;;7.28;3.85;;;;;;;22.72;46.49;101451.53;5012064;28;20057;-71
2022/05/10 09:37:32;;;;;;;5.82;3.38;;;;;;;22.85;46.60;101441.22;5011495;28;20555;-71
2022/05/10 09:40:19;;;;;;;5.95;3.63;;;;;;;22.97;45.11;101445.22;5007076;28;20050;-71
2022/05/10 09:42:52;;;;;;;8.00;3.50;;;;;;;23.06;46.30;101443.97;5005339;28;20056;-71
2022/05/10 09:45:26;;;;;;;8.40;3.70;;;;;;;23.01;46.05;101438.59;5008108;28;20038;-71
2022/05/10 09:47:59;;;;;;;8.20;3.85;;;;;;;22.96;46.54;101441.59;5001617;28;20062;-71
2022/05/10 09:50:33;;;;;;;4.28;3.40;;;;;;;22.86;46.93;101439.28;5004267;28;20050;-71
2022/05/10 09:53:09;;;;;;;6.55;3.30;;;;;;;22.88;46.73;101440.53;5005897;28;20076;-71
2022/05/10 09:55:40;;;;;;;4.57;3.53;;;;;;;22.94;48.78;101441.16;5007606;28;20042;-71
2022/05/10 09:58:17;;;;;;;4.28;3.45;;;;;;;23.20;47.52;101437.25;5008029;28;20068;-71
2022/05/10 10:00:52;;;;;;;6.93;3.50;;;;;;;23.15;45.93;101435.50;5010257;28;20077;-71
2022/05/10 10:03:26;;;;;;;6.38;3.22;;;;;;;23.19;46.95;101441.19;5005525;28;20432;-71
2022/05/10 10:05:56;;;;;;;;;;;;;;;23.19;46.72;101442.03;5001802;28;20062;-71
2022/05/10 10:08:38;;;;;;;6.15;3.72;;;;;;;23.29;45.61;101424.00;5008538;28;19921;-71
2022/05/10 10:11:12;;;;;;;4.80;3.70;;;;;;;23.26;47.62;101419.09;5010318;28;20050;-71
2022/05/10 10:13:41;;;;;;;6.70;3.60;;;;;;;23.45;43.71;101418.56;5006532;28;20050;-71
2022/05/10 10:16:20;;;;;;;5.15;3.25;;;;;;;23.42;44.58;101418.47;5002935;28;20054;-72
2022/05/10 10:18:52;;;;;;;5.72;3.38;;;;;;;23.43;43.50;101415.31;4999530;28;20049;-71
2022/05/10 10:21:27;;;;;;;4.03;3.22;;;;;;;23.55;44.04;101417.28;5005388;28;20046;-71
2022/05/10 10:23:58;;;;;;;5.43;3.70;;;;;;;23.69;44.73;101411.34;4999708;28;20061;-71
2022/05/10 10:26:44;;;;;;;5.07;3.50;;;;;;;23.78;44.18;101414.03;5009233;28;20046;-71
2022/05/10 10:29:13;;;;;;;7.43;3.38;;;;;;;23.92;43.07;101408.06;5005867;28;20052;-71
2022/05/10 10:31:54;;;;;;;4.05;2.58;;;;;;;23.87;41.28;101406.34;5004243;28;20038;-71
2022/05/10 10:34:33;;;;;;;7.88;4.97;;;;;;;23.93;44.36;101406.91;5002209;28;20054;-71
2022/05/10 10:37:07;;;;;;;7.68;3.92;;;;;;;23.91;44.50;101403.66;5007823;28;20061;-71
2022/05/10 10:39:36;;;;;;;6.45;3.97;;;;;;;23.90;44.95;101399.22;5010935;28;20058;-71
2022/05/10 10:42:14;;;;;;;4.95;4.25;;;;;;;24.05;45.54;101399.66;5002932;28;20043;-71
2022/05/10 10:44:51;;;;;;;6.50;3.80;;;;;;;24.21;44.64;101399.75;5000537;28;20057;-71
2022/05/10 10:47:43;;;;;;;4.22;3.83;;;;;;;24.32;42.80;101398.09;5002615;28;20043;-71
2022/05/10 10:50:27;;;;;;;6.85;3.90;;;;;;;24.27;43.07;101387.97;5004939;28;20076;-71
2022/05/10 10:52:58;;;;;;;6.10;3.50;;;;;;;24.46;42.31;101385.69;5010888;28;20042;-72
2022/05/10 10:55:47;;;;;;;5.47;3.63;;;;;;;24.40;42.69;101382.34;5014093;28;20069;-71
2022/05/10 10:58:43;;;;;;;7.13;4.05;;;;;;;24.46;44.48;101391.28;5014253;28;20061;-72
2022/05/10 11:01:36;;;;;;;3.50;3.20;;;;;;;24.33;42.73;101388.53;4990775;28;20046;-72
2022/05/10 11:04:31;;;;;;;5.40;3.50;;;;;;;24.52;41.87;101379.47;5010884;28;20038;-72
2022/05/10 11:07:15;;;;;;;5.07;3.83;;;;;;;24.52;42.69;101378.66;5008497;28;20054;-72
2022/05/10 11:10:00;;;;;;;3.80;3.38;;;;;;;24.57;42.57;101372.81;5001208;28;20497;-72
2022/05/10 11:12:34;;;;;;;8.23;3.80;;;;;;;24.77;41.80;101373.75;5000627;28;20038;-72
2022/05/10 11:15:16;;;;;;;3.97;3.58;;;;;;;24.93;40.20;101373.00;5005230;28;20057;-71
2022/05/10 11:18:02;;;;;;;4.03;3.65;;;;;;;25.06;42.06;101379.31;5005408;28;20054;-72
2022/05/10 11:20:51;;;;;;;5.57;4.20;;;;;;;24.98;41.80;101358.75;5003628;28;20054;-71
2022/05/10 11:23:43;;;;;;;4.40;3.95;;;;;;;25.05;44.18;101356.13;5001228;28;20050;-72
2022/05/10 11:26:22;;;;;;;4.07;3.53;;;;;;;24.92;43.08;101358.19;4998691;28;20057;-72
2022/05/10 11:28:59;;;;;;;4.32;3.47;;;;;;;25.11;43.29;101353.06;5011735;28;20054;-72
2022/05/10 11:32:10;;;;;;;6.40;3.80;;;;;;;25.18;42.96;101351.22;5004592;28;20053;-72
2022/05/10 11:35:23;;;;;;;5.28;3.90;;;;;;;25.11;42.61;101344.66;5002764;28;20050;-71
2022/05/10 11:38:09;;;;;;;6.25;3.40;;;;;;;25.25;42.06;101341.34;4997478;28;20061;-73
2022/05/10 11:40:53;;;;;;;3.42;3.00;;;;;;;25.31;38.04;101346.34;5002255;28;20047;-73
2022/05/10 11:43:39;;;;;;;6.40;3.17;;;;;;;25.27;40.07;101339.81;4975808;28;20501;-72
2022/05/10 11:46:19;;;;;;;6.10;3.15;;;;;;;25.48;40.06;101333.91;5005291;28;20050;-72
2022/05/10 11:49:02;;;;;;;4.72;3.28;;;;;;;25.57;38.32;101339.34;5004755;28;20054;-72
2022/05/10 11:51:38;;;;;;;4.90;3.10;;;;;;;25.59;39.58;101333.38;5012073;28;20473;-72
2022/05/10 11:54:50;;;;;;;2.72;2.53;;;;;;;25.57;36.90;101330.16;5013575;28;20053;-72
2022/05/10 11:57:21;;;;;;;5.18;3.30;;;;;;;25.67;38.63;101331.56;5005305;28;20080;-72
2022/05/10 11:59:49;;;;;;;10.27;3.50;;;;;;;25.70;36.47;101319.63;5011222;28;20064;-72
2022/05/10 12:02:29;;;;;;;5.45;3.28;;;;;;;26.09;38.34;101322.44;4991635;28;20084;-72
2022/05/10 12:05:18;;;;;;;3.42;2.38;;;;;;;26.22;37.29;101320.28;5006383;28;20563;-72
2022/05/10 12:08:01;;;;;;;6.93;2.88;;;;;;;26.22;37.28;101313.88;5006560;28;20041;-72
2022/05/10 12:10:36;;;;;;;2.88;2.60;;;;;;;25.94;37.02;101310.13;5011409;28;20045;-72
2022/05/10 12:13:06;;;;;;;2.72;2.45;;;;;;;25.98;35.73;101308.22;5010208;28;20057;-72